Time;durP1;ratioP1;P1;durP2;ratioP2;P2;SDS_P1;SDS_P2;PMS_P1;PMS_P2;Temp;Humidity;BMP_temperature;BMP_pressure;BME280_temperature;BME280_humidity;BME280_pressure;Samples;Min_cycle;Max_cycle;Signal;HPM_P1;HPM_P2
2022/01/20 00:01:03;;;;;;;18.85;2.95;;;4.80;99.90;;;;;;5058435;28;20067;-61
2022/01/20 00:03:33;;;;;;;17.38;2.85;;;4.80;99.90;;;;;;5050285;28;20029;-61
2022/01/20 00:27:32;;;;;;;27.20;2.95;;;4.80;99.90;;;;;;5049617;28;20086;-60
2022/01/20 00:30:29;;;;;;;12.88;2.20;;;4.80;99.90;;;;;;5056612;28;20021;-60
2022/01/20 00:38:15;;;;;;;14.20;1.92;;;4.90;99.90;;;;;;5055177;28;20025;-60
2022/01/20 00:40:41;;;;;;;15.63;2.10;;;4.90;99.90;;;;;;5054497;28;20527;-61
2022/01/20 00:43:07;;;;;;;8.57;1.80;;;4.90;99.90;;;;;;5053255;28;20029;-60
2022/01/20 00:45:32;;;;;;;12.55;1.58;;;4.90;99.90;;;;;;5058704;28;20503;-60
2022/01/20 00:47:58;;;;;;;14.48;2.63;;;4.90;99.90;;;;;;5057230;28;20024;-61
2022/01/20 00:50:24;;;;;;;14.43;1.65;;;4.90;99.90;;;;;;5052064;28;20036;-61
2022/01/20 00:52:50;;;;;;;14.90;1.88;;;4.90;99.90;;;;;;5053728;28;20497;-61
2022/01/20 00:55:16;;;;;;;12.32;1.73;;;4.90;99.90;;;;;;5040228;28;20108;-60
2022/01/20 00:57:41;;;;;;;14.30;1.80;;;4.90;99.90;;;;;;5051466;28;20036;-61
2022/01/20 01:00:09;;;;;;;7.53;1.83;;;4.90;99.90;;;;;;5043729;28;20028;-60
2022/01/20 01:02:35;;;;;;;14.63;1.60;;;4.90;99.90;;;;;;5054377;28;20033;-61
2022/01/20 01:05:03;;;;;;;15.93;2.55;;;4.90;99.90;;;;;;5063538;28;20423;-60
2022/01/20 01:09:54;;;;;;;15.95;3.08;;;4.90;99.90;;;;;;5060793;28;20057;-61
2022/01/20 01:12:31;;;;;;;11.27;1.85;;;4.90;99.90;;;;;;5054338;28;20024;-60
2022/01/20 01:14:58;;;;;;;8.95;1.70;;;4.90;99.90;;;;;;5051520;28;20074;-60
2022/01/20 01:20:15;;;;;;;12.52;1.70;;;5.00;99.90;;;;;;5053600;28;20423;-60
2022/01/20 01:22:41;;;;;;;13.35;1.45;;;4.90;99.90;;;;;;5053191;28;20040;-60
2022/01/20 01:25:07;;;;;;;11.57;1.58;;;4.90;99.90;;;;;;5058136;28;20422;-61
2022/01/20 01:27:38;;;;;;;9.82;1.77;;;4.90;99.90;;;;;;5057438;28;20040;-61
2022/01/20 01:31:04;;;;;;;18.00;2.05;;;4.90;99.90;;;;;;5049003;28;20034;-61
2022/01/20 01:32:54;;;;;;;11.47;1.70;;;4.90;99.90;;;;;;5048453;28;20095;-61
2022/01/20 01:35:23;;;;;;;6.80;2.15;;;4.90;99.90;;;;;;5051541;28;20039;-60
2022/01/20 01:40:34;;;;;;;13.57;1.40;;;4.90;99.90;;;;;;5053376;28;20052;-61
2022/01/20 01:43:06;;;;;;;10.35;1.63;;;4.90;99.90;;;;;;5060097;28;20032;-61
2022/01/20 01:45:35;;;;;;;13.07;1.60;;;4.90;99.90;;;;;;5053141;28;20100;-60
2022/01/20 01:48:02;;;;;;;10.88;1.48;;;4.90;99.90;;;;;;5054128;28;20018;-60
2022/01/20 01:50:29;;;;;;;7.00;0.88;;;4.90;99.90;;;;;;5055281;28;20440;-60
2022/01/20 01:52:57;;;;;;;7.15;1.33;;;4.90;99.90;;;;;;5049537;28;20025;-60
2022/01/20 01:55:23;;;;;;;12.73;2.42;;;4.90;99.90;;;;;;5059481;28;20496;-60
2022/01/20 01:57:49;;;;;;;7.90;1.10;;;4.90;99.90;;;;;;5053431;28;20033;-61
2022/01/20 02:00:16;;;;;;;8.57;0.95;;;4.90;99.90;;;;;;5033030;28;20117;-60
2022/01/20 02:02:42;;;;;;;14.00;1.27;;;4.90;99.90;;;;;;5056329;28;20024;-60
2022/01/20 02:05:11;;;;;;;8.73;1.50;;;4.90;99.90;;;;;;5056730;28;20012;-61
2022/01/20 02:20:49;;;;;;;11.63;1.35;;;4.90;99.90;;;;;;5053905;28;20369;-61
2022/01/20 02:23:15;;;;;;;12.88;2.33;;;5.00;99.90;;;;;;5054717;28;20031;-61
2022/01/20 02:25:40;;;;;;;9.55;1.13;;;5.00;99.90;;;;;;5056970;28;20041;-61
2022/01/20 02:28:08;;;;;;;9.98;1.10;;;5.00;99.90;;;;;;5047240;28;20024;-60
2022/01/20 02:30:36;;;;;;;9.88;1.00;;;5.10;99.90;;;;;;5062811;28;20476;-61
2022/01/20 02:33:05;;;;;;;8.52;1.40;;;5.10;99.90;;;;;;5054260;28;20103;-61
2022/01/20 02:35:35;;;;;;;12.77;1.60;;;5.10;99.90;;;;;;5054305;28;20119;-61
2022/01/20 02:38:09;;;;;;;12.82;1.55;;;5.10;99.90;;;;;;5059700;28;20033;-61
2022/01/20 02:45:54;;;;;;;14.20;2.10;;;5.10;99.90;;;;;;5061263;28;20116;-61
2022/01/20 02:48:20;;;;;;;9.75;1.48;;;5.10;99.90;;;;;;5056902;28;20108;-60
2022/01/20 02:50:46;;;;;;;12.07;1.63;;;5.10;99.90;;;;;;5062512;28;20105;-61
2022/01/20 02:53:11;;;;;;;15.20;3.20;;;5.10;99.90;;;;;;5060086;28;20629;-61
2022/01/20 02:55:37;;;;;;;6.65;1.00;;;5.00;99.90;;;;;;5038561;28;20087;-61
2022/01/20 02:58:03;;;;;;;10.85;1.98;;;5.00;99.90;;;;;;5056450;28;20074;-60
2022/01/20 03:00:30;;;;;;;13.60;1.00;;;5.00;99.90;;;;;;5056875;28;20078;-60
2022/01/20 03:02:56;;;;;;;6.43;0.85;;;5.00;99.90;;;;;;5038555;28;20513;-61
2022/01/20 03:05:23;;;;;;;5.75;0.90;;;5.00;99.90;;;;;;5059303;28;20066;-61
2022/01/20 03:07:48;;;;;;;6.65;0.73;;;5.00;99.90;;;;;;5053851;28;20079;-61
2022/01/20 03:10:14;;;;;;;5.20;0.50;;;5.00;99.90;;;;;;5058671;28;20017;-61
2022/01/20 03:12:40;;;;;;;4.95;0.77;;;5.00;99.90;;;;;;5056878;28;20396;-60
2022/01/20 03:15:06;;;;;;;7.95;0.75;;;5.10;99.90;;;;;;5032962;28;20366;-60
2022/01/20 03:17:32;;;;;;;6.97;0.90;;;5.00;99.90;;;;;;5043757;28;20123;-61
2022/01/20 03:19:58;;;;;;;7.18;1.08;;;5.10;99.90;;;;;;5054621;28;20060;-61
2022/01/20 03:22:24;;;;;;;10.65;1.20;;;5.10;99.90;;;;;;5053518;28;20051;-61
2022/01/20 03:24:50;;;;;;;8.98;1.35;;;5.00;99.90;;;;;;5059310;28;20024;-60
2022/01/20 03:27:15;;;;;;;8.32;1.65;;;5.10;99.90;;;;;;5056219;28;20450;-61
2022/01/20 03:29:41;;;;;;;9.68;1.40;;;5.10;99.90;;;;;;5055912;28;20032;-61
2022/01/20 03:32:07;;;;;;;15.75;2.75;;;5.10;99.90;;;;;;5055870;28;20546;-61
2022/01/20 03:34:33;;;;;;;10.18;1.33;;;5.00;99.90;;;;;;5056031;28;20024;-61
2022/01/20 03:37:00;;;;;;;11.88;1.60;;;5.00;99.90;;;;;;5053368;28;20115;-60
2022/01/20 03:39:25;;;;;;;9.48;1.55;;;5.00;99.90;;;;;;5050571;28;20013;-60
2022/01/20 03:41:51;;;;;;;10.23;1.40;;;5.00;99.90;;;;;;5041236;28;20439;-60
2022/01/20 03:44:17;;;;;;;14.30;1.75;;;5.00;99.90;;;;;;5059544;28;20059;-60
2022/01/20 03:46:42;;;;;;;15.93;2.05;;;5.00;99.90;;;;;;5053147;28;20031;-60
2022/01/20 03:49:12;;;;;;;12.73;1.65;;;5.00;99.90;;;;;;5055812;28;20465;-60
2022/01/20 03:51:38;;;;;;;16.42;1.90;;;5.00;99.90;;;;;;5055819;28;20027;-60
2022/01/20 03:54:04;;;;;;;9.20;1.10;;;5.00;99.90;;;;;;5056009;28;20392;-60
2022/01/20 03:56:31;;;;;;;14.07;1.90;;;5.00;99.90;;;;;;5051767;28;20079;-60
2022/01/20 03:58:57;;;;;;;12.27;1.30;;;5.00;99.90;;;;;;5053618;28;20056;-60
2022/01/20 04:01:22;;;;;;;12.88;1.58;;;5.00;99.90;;;;;;5058167;28;20052;-60
2022/01/20 04:03:49;;;;;;;10.98;1.40;;;5.00;99.90;;;;;;5052974;28;20043;-60
2022/01/20 04:06:15;;;;;;;7.85;1.20;;;5.00;99.90;;;;;;5055591;28;20031;-60
2022/01/20 04:08:43;;;;;;;16.30;2.05;;;5.10;99.90;;;;;;5052468;28;20546;-60
2022/01/20 04:11:14;;;;;;;7.00;1.20;;;5.10;99.90;;;;;;5056789;28;20044;-60
2022/01/20 04:13:40;;;;;;;11.82;1.50;;;5.10;99.90;;;;;;5058674;28;20028;-60
2022/01/20 04:16:18;;;;;;;7.75;1.08;;;5.10;99.90;;;;;;5037397;28;20028;-60
2022/01/20 04:18:56;;;;;;;6.85;0.65;;;5.10;99.90;;;;;;5060358;28;20021;-60
2022/01/20 04:21:27;;;;;;;9.95;1.20;;;5.10;99.90;;;;;;5055600;28;20033;-60
2022/01/20 04:23:54;;;;;;;7.15;0.80;;;5.10;99.90;;;;;;5051149;28;20441;-60
2022/01/20 04:26:20;;;;;;;5.43;0.90;;;5.10;99.90;;;;;;5054732;28;20471;-60
2022/01/20 04:28:46;;;;;;;5.97;0.80;;;5.10;99.90;;;;;;5057770;28;20025;-60
2022/01/20 04:31:12;;;;;;;7.68;1.00;;;5.10;99.90;;;;;;5055008;28;20055;-60
2022/01/20 04:33:38;;;;;;;6.07;0.57;;;5.00;99.90;;;;;;5055073;28;20036;-60
2022/01/20 04:36:05;;;;;;;5.45;0.70;;;5.10;99.90;;;;;;5041976;28;20497;-60
2022/01/20 04:38:31;;;;;;;4.25;0.55;;;5.00;99.90;;;;;;5052472;28;20025;-60
2022/01/20 04:40:56;;;;;;;9.05;1.33;;;5.00;99.90;;;;;;5054834;28;20074;-60
2022/01/20 04:43:23;;;;;;;9.98;0.90;;;5.00;99.90;;;;;;5059306;28;20024;-60
2022/01/20 04:45:57;;;;;;;7.40;0.70;;;5.00;99.90;;;;;;5060339;28;20025;-60
2022/01/20 04:48:44;;;;;;;5.72;0.80;;;5.00;99.90;;;;;;5049646;28;20025;-60
2022/01/20 04:59:22;;;;;;;11.18;0.80;;;4.90;99.90;;;;;;5057354;28;20098;-60
2022/01/20 05:01:48;;;;;;;8.52;0.95;;;4.90;99.90;;;;;;5051897;28;20040;-60
2022/01/20 05:04:13;;;;;;;5.53;0.90;;;5.00;99.90;;;;;;5054463;28;20016;-60
2022/01/20 05:06:41;;;;;;;6.22;0.70;;;5.00;99.90;;;;;;5054366;28;20029;-60
2022/01/20 05:09:07;;;;;;;11.50;1.05;;;5.00;99.90;;;;;;5054477;28;20027;-60
2022/01/20 05:11:36;;;;;;;4.35;0.40;;;5.00;99.90;;;;;;5048836;28;20021;-60
2022/01/20 05:14:02;;;;;;;7.60;1.05;;;5.00;99.90;;;;;;5054116;28;20595;-60
2022/01/20 05:16:27;;;;;;;16.63;2.00;;;5.00;99.90;;;;;;5054520;28;20281;-60
2022/01/20 05:18:53;;;;;;;8.88;1.40;;;4.90;99.90;;;;;;5035047;28;20369;-60
2022/01/20 05:21:18;;;;;;;7.00;0.95;;;4.90;99.90;;;;;;5056985;28;20024;-60
2022/01/20 05:23:44;;;;;;;12.30;1.88;;;4.90;99.90;;;;;;5056809;28;20093;-61
2022/01/20 05:26:10;;;;;;;8.77;1.05;;;4.90;99.90;;;;;;5054207;28;20045;-60
2022/01/20 05:28:35;;;;;;;5.88;0.98;;;4.90;99.90;;;;;;5051247;28;20048;-60
2022/01/20 05:31:01;;;;;;;4.28;0.60;;;4.90;99.90;;;;;;5056879;28;20032;-61
2022/01/20 05:33:27;;;;;;;7.00;1.00;;;4.90;99.90;;;;;;5056827;28;20021;-60
2022/01/20 05:35:53;;;;;;;6.75;1.20;;;4.90;99.90;;;;;;5048708;28;20024;-60
2022/01/20 05:38:19;;;;;;;6.35;0.60;;;4.90;99.90;;;;;;5056642;28;20074;-60
2022/01/20 05:40:45;;;;;;;8.07;1.08;;;4.90;99.90;;;;;;5059306;28;20020;-60
2022/01/20 05:43:11;;;;;;;9.38;1.40;;;4.90;99.90;;;;;;5056624;28;20085;-60
2022/01/20 05:45:36;;;;;;;10.10;1.30;;;4.90;99.90;;;;;;5054156;28;20021;-60
2022/01/20 05:48:15;;;;;;;8.00;1.38;;;4.90;99.90;;;;;;5059380;28;20032;-60
2022/01/20 05:50:49;;;;;;;6.97;1.20;;;4.90;99.90;;;;;;5053896;28;20535;-60
2022/01/20 05:53:15;;;;;;;9.32;1.40;;;4.90;99.90;;;;;;5052862;28;20083;-60
2022/01/20 05:55:41;;;;;;;11.52;1.45;;;4.90;99.90;;;;;;5057716;28;20480;-60
2022/01/20 05:58:07;;;;;;;9.90;1.65;;;4.90;99.90;;;;;;5063247;28;20071;-60
2022/01/20 06:00:47;;;;;;;8.02;1.05;;;4.90;99.90;;;;;;5052424;28;20066;-60
2022/01/20 06:05:59;;;;;;;9.20;1.30;;;4.90;99.90;;;;;;5058218;28;20078;-60
2022/01/20 06:08:25;;;;;;;9.38;1.42;;;4.90;99.90;;;;;;5060633;28;20539;-60
2022/01/20 06:10:50;;;;;;;10.60;1.42;;;4.90;99.90;;;;;;5059946;28;20059;-60
2022/01/20 06:13:21;;;;;;;11.13;1.27;;;4.90;99.90;;;;;;5052789;28;20029;-60
2022/01/20 06:15:46;;;;;;;10.95;1.27;;;4.90;99.90;;;;;;5053925;28;20056;-60
2022/01/20 06:18:12;;;;;;;8.85;1.42;;;4.90;99.90;;;;;;5055506;28;20068;-61
2022/01/20 06:20:39;;;;;;;13.82;1.75;;;4.90;99.90;;;;;;5055298;28;20032;-60
2022/01/20 06:23:06;;;;;;;7.82;1.63;;;4.90;99.90;;;;;;5055747;28;20032;-60
2022/01/20 06:25:32;;;;;;;12.95;1.63;;;4.90;99.90;;;;;;5055607;28;20185;-60
2022/01/20 06:27:57;;;;;;;18.00;1.50;;;4.90;99.90;;;;;;5055865;28;20516;-60
2022/01/20 06:30:25;;;;;;;9.82;1.65;;;4.90;99.90;;;;;;5037922;28;20044;-60
2022/01/20 06:32:51;;;;;;;6.43;1.08;;;4.90;99.90;;;;;;5037646;28;20374;-60
2022/01/20 06:35:31;;;;;;;15.90;1.70;;;4.90;99.90;;;;;;5072722;28;20060;-61
2022/01/20 06:37:56;;;;;;;9.27;2.13;;;4.90;99.90;;;;;;5069737;28;20100;-60
2022/01/20 06:40:28;;;;;;;14.27;1.73;;;4.80;99.90;;;;;;5068406;28;20064;-60
2022/01/20 06:42:53;;;;;;;17.42;1.75;;;4.90;99.90;;;;;;5074783;28;20035;-60
2022/01/20 06:45:20;;;;;;;14.38;3.17;;;4.80;99.90;;;;;;5074648;28;20520;-60
2022/01/20 06:47:55;;;;;;;14.88;1.77;;;4.80;99.90;;;;;;5074637;28;20020;-60
2022/01/20 06:50:22;;;;;;;11.57;1.40;;;4.80;99.90;;;;;;5075535;28;20103;-60
2022/01/20 06:52:48;;;;;;;13.65;1.90;;;4.80;99.90;;;;;;5075493;28;20032;-60
2022/01/20 06:55:29;;;;;;;13.88;1.70;;;4.80;99.90;;;;;;5075295;28;20062;-60
2022/01/20 06:57:56;;;;;;;13.77;2.03;;;4.80;99.90;;;;;;5075241;28;20077;-59
2022/01/20 07:00:24;;;;;;;17.23;2.20;;;4.80;99.90;;;;;;5075206;28;20017;-60
2022/01/20 07:02:51;;;;;;;10.90;1.58;;;4.80;99.90;;;;;;5075117;28;20024;-60
2022/01/20 07:05:19;;;;;;;9.75;1.35;;;4.80;99.90;;;;;;5074287;28;20115;-60
2022/01/20 07:07:44;;;;;;;11.70;1.63;;;4.80;99.90;;;;;;5074898;28;20044;-60
2022/01/20 07:10:12;;;;;;;14.07;1.67;;;4.80;99.90;;;;;;5057154;28;20388;-60
2022/01/20 07:12:38;;;;;;;11.15;1.85;;;4.70;99.90;;;;;;5074844;28;20039;-60
2022/01/20 07:15:04;;;;;;;16.10;1.50;;;4.80;99.90;;;;;;5074873;28;20384;-60
2022/01/20 07:17:30;;;;;;;10.63;1.80;;;4.80;99.90;;;;;;5074305;28;20052;-60
2022/01/20 07:19:55;;;;;;;10.32;1.60;;;4.70;99.90;;;;;;5055050;28;20087;-60
2022/01/20 07:22:21;;;;;;;11.05;1.25;;;4.70;99.90;;;;;;5073059;28;20063;-60
2022/01/20 07:25:17;;;;;;;13.20;1.45;;;4.70;99.90;;;;;;5072064;28;20480;-60
2022/01/20 07:27:55;;;;;;;9.35;1.42;;;4.70;99.90;;;;;;5071314;28;20449;-60
2022/01/20 07:30:21;;;;;;;8.35;1.10;;;4.70;99.90;;;;;;5069191;28;20085;-60
2022/01/20 07:32:47;;;;;;;9.30;1.40;;;4.70;99.90;;;;;;5068279;28;20020;-60
2022/01/20 07:35:13;;;;;;;10.68;0.82;;;4.70;99.90;;;;;;5070778;28;20055;-60
2022/01/20 07:37:38;;;;;;;10.73;1.52;;;4.70;99.90;;;;;;5073423;28;20099;-61
2022/01/20 07:40:04;;;;;;;6.32;1.08;;;4.70;99.90;;;;;;5071080;28;20082;-60
2022/01/20 07:42:54;;;;;;;6.32;1.20;;;4.70;99.90;;;;;;5074176;28;20055;-60
2022/01/20 07:45:21;;;;;;;6.63;1.10;;;4.70;99.90;;;;;;5071677;28;20373;-60
2022/01/20 07:47:47;;;;;;;5.32;1.15;;;4.70;99.90;;;;;;5074204;28;20024;-60
2022/01/20 07:50:12;;;;;;;6.78;0.90;;;4.80;99.90;;;;;;5091408;28;20031;-60
2022/01/20 07:52:38;;;;;;;12.07;1.20;;;4.70;99.90;;;;;;5072010;28;20400;-60
2022/01/20 07:55:04;;;;;;;6.00;0.77;;;4.80;99.90;;;;;;5069480;28;20439;-61
2022/01/20 07:57:30;;;;;;;5.72;0.93;;;4.80;99.70;;;;;;5053981;28;20119;-60
2022/01/20 07:59:55;;;;;;;6.93;0.85;;;4.80;99.60;;;;;;5054012;28;20108;-61
2022/01/20 08:02:21;;;;;;;6.47;0.90;;;4.80;99.50;;;;;;5053991;28;20083;-60
2022/01/20 08:04:46;;;;;;;7.25;0.98;;;4.80;98.80;;;;;;5053918;28;20021;-60
2022/01/20 08:07:12;;;;;;;8.25;1.10;;;4.80;98.50;;;;;;5056593;28;20508;-60
2022/01/20 08:09:38;;;;;;;7.88;1.42;;;4.80;98.50;;;;;;5063348;28;20044;-61
2022/01/20 08:12:05;;;;;;;6.95;0.95;;;4.80;98.20;;;;;;5043661;28;20361;-62
2022/01/20 08:14:31;;;;;;;7.78;0.90;;;4.80;98.00;;;;;;5084146;28;20016;-61
2022/01/20 08:16:56;;;;;;;8.43;1.48;;;4.80;97.90;;;;;;5069528;28;20032;-62
2022/01/20 08:19:22;;;;;;;8.30;1.00;;;4.80;97.80;;;;;;5071289;28;20021;-61
2022/01/20 08:21:47;;;;;;;6.68;1.05;;;4.80;97.80;;;;;;5072616;28;20089;-61
2022/01/20 08:24:13;;;;;;;6.65;1.10;;;4.80;97.60;;;;;;5065622;28;20020;-61
2022/01/20 08:26:39;;;;;;;7.72;1.10;;;4.80;97.60;;;;;;5043285;28;20137;-61
2022/01/20 08:29:04;;;;;;;2.97;0.73;;;4.90;97.70;;;;;;5042815;28;20040;-61
2022/01/20 08:31:31;;;;;;;8.75;0.90;;;4.90;97.80;;;;;;5059636;28;20029;-61
2022/01/20 08:33:56;;;;;;;6.60;1.13;;;4.90;97.70;;;;;;5072332;28;20025;-61
2022/01/20 08:36:59;;;;;;;7.07;1.00;;;4.90;97.50;;;;;;5068878;28;20078;-61
2022/01/20 08:42:01;;;;;;;8.00;1.00;;;4.90;97.30;;;;;;5068275;28;20392;-61
2022/01/20 08:44:27;;;;;;;;;;;4.90;97.20;;;;;;5069228;28;20044;-61
2022/01/20 08:46:53;;;;;;;6.45;0.80;;;4.80;97.10;;;;;;5071794;28;19943;-60
2022/01/20 08:49:20;;;;;;;6.07;1.17;;;4.80;97.20;;;;;;5065504;28;20074;-61
2022/01/20 08:51:45;;;;;;;5.10;1.17;;;4.80;97.10;;;;;;5068231;28;20028;-60
2022/01/20 08:54:13;;;;;;;7.60;1.05;;;4.90;96.90;;;;;;5068472;28;20491;-61
2022/01/20 08:56:56;;;;;;;;;;;;;;;;;;;;;
2022/01/20 08:59:22;;;;;;;5.70;0.80;;;4.90;96.80;;;;;;5065866;28;20028;-61
2022/01/20 09:01:47;;;;;;;4.07;1.48;;;4.90;96.70;;;;;;5072171;28;20108;-61
2022/01/20 09:04:13;;;;;;;7.53;1.10;;;4.90;96.60;;;;;;5064864;28;20930;-61
2022/01/20 09:06:38;;;;;;;7.32;1.00;;;4.90;96.50;;;;;;5071191;28;20017;-61
2022/01/20 09:09:07;;;;;;;6.43;0.80;;;5.00;96.50;;;;;;5072301;28;20511;-61
2022/01/20 09:11:37;;;;;;;9.20;1.10;;;5.00;96.50;;;;;;5071978;28;20032;-61
2022/01/20 09:16:49;;;;;;;5.32;0.93;;;5.10;96.40;;;;;;5065750;28;20076;-61
2022/01/20 09:19:15;;;;;;;7.43;0.95;;;5.00;96.30;;;;;;5064987;28;20020;-61
2022/01/20 09:21:40;;;;;;;4.70;0.80;;;5.10;96.30;;;;;;5053424;28;20082;-61
2022/01/20 09:24:07;;;;;;;8.95;1.70;;;5.10;96.30;;;;;;5068305;28;20024;-61
2022/01/20 09:26:32;;;;;;;11.98;1.55;;;5.20;96.10;;;;;;5071831;28;20045;-61
2022/01/20 09:28:58;;;;;;;6.65;1.02;;;5.20;96.00;;;;;;5068176;28;20020;-61
2022/01/20 09:31:26;;;;;;;8.95;1.40;;;5.20;95.80;;;;;;5068061;28;20411;-61
2022/01/20 09:33:53;;;;;;;6.32;1.33;;;5.20;95.60;;;;;;5071912;28;20082;-61
2022/01/20 09:36:20;;;;;;;7.78;1.33;;;5.30;95.40;;;;;;5068075;28;20154;-61
2022/01/20 09:38:46;;;;;;;12.43;2.10;;;5.30;95.40;;;;;;5071976;28;20052;-61
2022/01/20 09:41:11;;;;;;;7.38;1.25;;;5.40;95.40;;;;;;5069314;28;20017;-61
2022/01/20 09:43:37;;;;;;;15.13;1.90;;;5.50;95.30;;;;;;5071669;28;20024;-62
2022/01/20 09:46:03;;;;;;;9.60;1.27;;;5.50;95.00;;;;;;5071969;28;20032;-61
2022/01/20 09:48:31;;;;;;;8.65;1.23;;;5.60;95.00;;;;;;5074516;28;20032;-61
2022/01/20 09:50:59;;;;;;;11.05;1.70;;;5.70;94.70;;;;;;5087957;28;20030;-61
2022/01/20 09:53:26;;;;;;;5.03;0.90;;;5.70;94.60;;;;;;5068114;28;20016;-62
2022/01/20 09:55:52;;;;;;;7.72;0.82;;;5.70;94.70;;;;;;5071450;28;20027;-60
2022/01/20 09:58:17;;;;;;;6.40;0.93;;;5.70;94.80;;;;;;5071578;28;20400;-61
2022/01/20 10:00:45;;;;;;;4.35;1.15;;;5.80;94.80;;;;;;5053172;28;20027;-61
2022/01/20 10:03:13;;;;;;;6.57;1.00;;;6.00;94.60;;;;;;5070927;28;20021;-60
2022/01/20 10:05:40;;;;;;;8.95;1.40;;;6.20;94.60;;;;;;5050558;28;20020;-61
2022/01/20 10:08:09;;;;;;;5.72;1.08;;;6.50;94.60;;;;;;5067293;28;20025;-61
2022/01/20 10:10:52;;;;;;;9.75;1.05;;;6.90;94.30;;;;;;5051914;28;20032;-60
2022/01/20 10:13:23;;;;;;;8.70;1.88;;;7.10;93.50;;;;;;5052056;28;20032;-61
2022/01/20 10:16:09;;;;;;;7.32;1.13;;;7.10;93.20;;;;;;5071209;28;20032;-62
2022/01/20 10:18:49;;;;;;;7.22;1.30;;;7.00;93.30;;;;;;5071371;28;20021;-60
2022/01/20 10:21:17;;;;;;;;;;;6.90;93.30;;;;;;5053842;28;20112;-60
2022/01/20 10:23:45;;;;;;;9.52;1.98;;;6.70;93.00;;;;;;5071184;28;20351;-60
2022/01/20 10:26:23;;;;;;;6.88;1.00;;;6.60;93.00;;;;;;5071351;28;20079;-61
2022/01/20 10:28:55;;;;;;;10.90;1.55;;;6.60;92.90;;;;;;5071462;28;20028;-60
2022/01/20 10:31:34;;;;;;;9.88;1.13;;;6.60;92.70;;;;;;5066916;28;20025;-60
2022/01/20 10:34:01;;;;;;;7.35;1.42;;;6.80;92.60;;;;;;5070563;28;20419;-60
2022/01/20 10:36:26;;;;;;;8.90;1.10;;;7.20;92.60;;;;;;5069222;28;20056;-61
2022/01/20 10:38:54;;;;;;;6.45;1.20;;;7.40;91.80;;;;;;5068771;28;20129;-61
2022/01/20 10:41:38;;;;;;;8.07;1.20;;;7.40;91.20;;;;;;5053511;28;20215;-61
2022/01/20 10:44:05;;;;;;;7.82;1.42;;;7.30;90.80;;;;;;5055238;28;20151;-60
2022/01/20 10:46:42;;;;;;;6.85;1.75;;;7.20;90.90;;;;;;5054501;28;20013;-60
2022/01/20 10:49:08;;;;;;;9.23;1.27;;;7.20;90.90;;;;;;5070126;28;20021;-60
2022/01/20 10:51:33;;;;;;;7.78;1.35;;;7.60;90.50;;;;;;5070865;28;20040;-61
2022/01/20 10:54:06;;;;;;;5.78;0.90;;;8.40;90.00;;;;;;5070328;28;20025;-61
2022/01/20 10:56:57;;;;;;;6.30;1.30;;;9.30;87.20;;;;;;5071084;28;20031;-61
2022/01/20 10:59:24;;;;;;;5.25;0.90;;;9.60;84.30;;;;;;5071362;28;20028;-61
2022/01/20 11:02:02;;;;;;;4.40;1.00;;;9.20;81.60;;;;;;5064235;28;20028;-61
2022/01/20 11:07:33;;;;;;;7.63;1.10;;;8.50;81.90;;;;;;5062903;28;20060;-61
2022/01/20 11:10:02;;;;;;;5.60;1.00;;;8.20;83.30;;;;;;5084827;28;20028;-61
2022/01/20 11:12:28;;;;;;;8.13;1.20;;;8.00;82.30;;;;;;5078134;28;20021;-60
2022/01/20 11:14:55;;;;;;;6.25;1.08;;;7.90;82.20;;;;;;5073325;28;20173;-60
2022/01/20 11:17:29;;;;;;;5.53;0.93;;;8.00;81.90;;;;;;5073662;28;20035;-60
2022/01/20 11:20:10;;;;;;;7.20;1.48;;;8.50;82.80;;;;;;5073981;28;20020;-60
2022/01/20 11:22:36;;;;;;;7.88;1.08;;;8.90;81.20;;;;;;5070613;28;20446;-60
2022/01/20 11:25:14;;;;;;;6.43;0.93;;;9.60;80.60;;;;;;5074115;28;20013;-60
2022/01/20 11:27:42;;;;;;;8.30;1.55;;;10.60;78.30;;;;;;5051969;28;20044;-60
2022/01/20 11:30:42;;;;;;;5.25;0.93;;;11.80;74.90;;;;;;5067552;28;20507;-60
2022/01/20 11:33:15;;;;;;;5.45;1.08;;;13.00;73.10;;;;;;5058688;28;20024;-60
2022/01/20 11:35:42;;;;;;;5.72;1.10;;;13.70;69.30;;;;;;5072142;28;20099;-60
2022/01/20 11:38:09;;;;;;;8.52;1.52;;;13.40;68.30;;;;;;5073921;28;20032;-60
2022/01/20 11:40:46;;;;;;;5.05;1.13;;;12.90;67.90;;;;;;5073569;28;20016;-60
2022/01/20 11:43:13;;;;;;;5.70;1.00;;;12.40;66.20;;;;;;5073576;28;20074;-60
2022/01/20 11:45:50;;;;;;;8.40;1.10;;;12.00;66.30;;;;;;5073442;28;20020;-61
2022/01/20 11:48:24;;;;;;;4.10;0.60;;;12.20;66.60;;;;;;5073756;28;20028;-60
2022/01/20 11:51:06;;;;;;;4.75;0.82;;;13.40;65.40;;;;;;5073367;28;20098;-60
2022/01/20 11:53:31;;;;;;;3.75;0.80;;;14.80;62.50;;;;;;5073695;28;20058;-61
2022/01/20 11:55:57;;;;;;;4.75;1.20;;;16.10;59.90;;;;;;5034861;28;20060;-61
2022/01/20 11:58:25;;;;;;;4.65;0.75;;;17.50;57.60;;;;;;5068847;28;20120;-61
2022/01/20 12:01:32;;;;;;;;;;;;;;;;;;;;;
2022/01/20 12:03:58;;;;;;;6.13;1.10;;;20.00;51.10;;;;;;5071499;28;20035;-61
2022/01/20 12:06:25;;;;;;;4.93;0.80;;;21.20;48.40;;;;;;5072740;28;20099;-61
2022/01/20 12:08:59;;;;;;;6.53;0.88;;;21.90;46.50;;;;;;5072462;28;20028;-62
2022/01/20 12:11:42;;;;;;;3.70;0.90;;;22.80;45.80;;;;;;5065716;28;20039;-62
2022/01/20 12:14:09;;;;;;;3.35;1.02;;;22.40;43.80;;;;;;5069355;28;20476;-61
2022/01/20 12:16:36;;;;;;;5.65;1.00;;;21.60;44.60;;;;;;5045830;28;20116;-61
2022/01/20 12:19:04;;;;;;;5.30;1.15;;;21.30;44.20;;;;;;5054386;28;20035;-62
2022/01/20 12:21:31;;;;;;;8.07;1.30;;;20.40;43.30;;;;;;5070081;28;20032;-61
2022/01/20 12:23:59;;;;;;;4.45;1.00;;;19.00;43.60;;;;;;5072328;28;20017;-61
2022/01/20 12:26:24;;;;;;;5.82;1.08;;;18.90;44.90;;;;;;5072772;28;20489;-61
2022/01/20 12:29:05;;;;;;;4.50;1.10;;;19.10;45.20;;;;;;5072699;28;20520;-61
2022/01/20 12:31:32;;;;;;;5.85;1.73;;;20.50;45.20;;;;;;5072621;28;20091;-62
2022/01/20 12:33:58;;;;;;;3.78;1.00;;;22.10;44.30;;;;;;5071591;28;20024;-62
2022/01/20 12:36:51;;;;;;;4.07;1.20;;;23.60;42.60;;;;;;5072894;28;20021;-62
2022/01/20 12:39:28;;;;;;;5.88;1.45;;;24.80;41.00;;;;;;5072357;28;20056;-62
2022/01/20 12:42:00;;;;;;;3.88;0.80;;;25.10;40.30;;;;;;5072610;28;20035;-62
2022/01/20 12:45:55;;;;;;;3.80;1.20;;;25.70;40.20;;;;;;5072547;28;20488;-62
2022/01/20 12:47:32;;;;;;;6.22;1.25;;;24.70;39.70;;;;;;5068246;28;20079;-62
2022/01/20 12:50:00;;;;;;;4.65;0.70;;;22.80;40.30;;;;;;5069353;28;20028;-62
2022/01/20 12:52:27;;;;;;;4.70;1.50;;;21.40;42.40;;;;;;5061250;28;20024;-61
2022/01/20 12:54:52;;;;;;;5.60;1.08;;;20.20;44.10;;;;;;5069287;28;20107;-62
2022/01/20 12:57:20;;;;;;;3.33;0.98;;;19.10;45.90;;;;;;5070334;28;22384;-61
2022/01/20 12:59:46;;;;;;;5.78;0.90;;;18.30;47.10;;;;;;5071766;28;20029;-61
2022/01/20 13:02:20;;;;;;;3.08;0.82;;;17.40;47.50;;;;;;5054130;28;20046;-61
2022/01/20 13:04:46;;;;;;;8.45;1.45;;;16.50;48.30;;;;;;5052892;28;20020;-61
2022/01/20 13:07:16;;;;;;;5.95;1.02;;;15.70;48.40;;;;;;5053562;28;20107;-61
2022/01/20 13:09:48;;;;;;;5.75;1.00;;;14.90;49.30;;;;;;5064206;28;20012;-61
2022/01/20 13:12:18;;;;;;;5.57;0.95;;;14.40;50.70;;;;;;5055956;28;20067;-61
2022/01/20 13:14:52;;;;;;;;;;;13.90;51.70;;;;;;5036455;28;20569;-61
2022/01/20 13:17:26;;;;;;;5.10;1.20;;;13.40;53.70;;;;;;5070570;28;19904;-61
2022/01/20 13:19:55;;;;;;;5.95;0.88;;;12.80;55.40;;;;;;5057081;28;20533;-61
2022/01/20 13:22:43;;;;;;;3.27;0.70;;;12.40;56.40;;;;;;5028719;28;20036;-60
2022/01/20 13:25:13;;;;;;;4.18;0.70;;;12.10;57.40;;;;;;5069969;28;20614;-61
2022/01/20 13:27:51;;;;;;;6.85;1.00;;;11.80;58.50;;;;;;5070566;28;20563;-61
2022/01/20 13:30:36;;;;;;;4.68;0.93;;;11.50;59.10;;;;;;5053024;28;20115;-60
2022/01/20 13:33:12;;;;;;;4.60;0.90;;;11.60;60.40;;;;;;5071277;28;20059;-60
2022/01/20 13:35:40;;;;;;;5.40;0.88;;;13.20;59.80;;;;;;5050755;28;20025;-61
2022/01/20 13:38:07;;;;;;;2.72;0.82;;;15.10;57.10;;;;;;5070668;28;20020;-61
2022/01/20 13:40:33;;;;;;;4.97;1.65;;;16.80;54.50;;;;;;5070555;28;20047;-61
2022/01/20 13:45:42;;;;;;;5.28;1.17;;;19.00;49.90;;;;;;5084246;28;20048;-61
2022/01/20 13:48:10;;;;;;;5.93;1.17;;;19.80;48.90;;;;;;5074008;28;20029;-61
2022/01/20 13:50:42;;;;;;;4.75;1.17;;;20.20;47.40;;;;;;5070655;28;20519;-62
2022/01/20 13:53:35;;;;;;;6.60;1.10;;;20.30;46.80;;;;;;5081118;28;20035;-62
2022/01/20 13:56:18;;;;;;;4.32;1.05;;;19.50;46.80;;;;;;5054201;28;20038;-61
2022/01/20 13:58:43;;;;;;;5.40;1.20;;;18.40;48.20;;;;;;5071071;28;20035;-61
2022/01/20 14:01:09;;;;;;;3.97;1.13;;;17.30;49.70;;;;;;5069501;28;20051;-61
2022/01/20 14:03:38;;;;;;;6.95;1.35;;;16.40;51.20;;;;;;5068621;28;20032;-61
2022/01/20 14:06:06;;;;;;;4.97;1.00;;;15.40;52.50;;;;;;5069525;28;20017;-61
2022/01/20 14:08:34;;;;;;;6.45;1.20;;;14.70;54.10;;;;;;5071128;28;20041;-61
2022/01/20 14:10:59;;;;;;;8.40;1.58;;;14.00;55.30;;;;;;5070393;28;20032;-61
2022/01/20 14:13:25;;;;;;;6.70;1.73;;;13.50;56.40;;;;;;5068126;28;20554;-60
2022/01/20 14:15:52;;;;;;;7.60;1.20;;;12.90;57.40;;;;;;5059224;28;20377;-60
2022/01/20 14:18:19;;;;;;;7.18;1.35;;;12.50;58.60;;;;;;5055938;28;20044;-60
2022/01/20 14:20:46;;;;;;;6.10;1.10;;;12.10;59.60;;;;;;5075015;28;20028;-60